createdAt,value
2023-01-17T00:01:34.185Z,51.60
2023-01-17T00:04:19.923Z,42.33
2023-01-17T00:07:05.634Z,39.25
2023-01-17T00:09:51.066Z,45.17
2023-01-17T00:12:18.188Z,35.70
2023-01-17T00:14:45.023Z,39.33
2023-01-17T00:17:12.097Z,36.47
2023-01-17T00:19:57.640Z,42.13
2023-01-17T00:22:45.852Z,38.85
2023-01-17T00:25:33.468Z,43.38
2023-01-17T00:28:00.660Z,41.45
2023-01-17T00:30:28.025Z,37.25
2023-01-17T00:32:54.872Z,40.35
2023-01-17T00:35:25.751Z,38.90
2023-01-17T00:38:22.679Z,37.92
2023-01-17T00:40:49.957Z,40.60
2023-01-17T00:43:38.018Z,39.97
2023-01-17T00:46:24.109Z,35.53
2023-01-17T00:49:09.750Z,36.58
2023-01-17T00:51:55.885Z,41.47
2023-01-17T00:54:41.398Z,33.22
2023-01-17T00:57:27.049Z,37.75
2023-01-17T01:00:12.723Z,43.92
2023-01-17T01:02:58.255Z,49.00
2023-01-17T01:05:43.946Z,46.65
2023-01-17T01:08:43.673Z,36.00
2023-01-17T01:11:35.238Z,37.97
2023-01-17T01:14:21.504Z,39.53
2023-01-17T01:17:07.019Z,34.58
2023-01-17T01:19:52.540Z,39.78
2023-01-17T01:22:38.180Z,40.38
2023-01-17T01:25:24.292Z,35.22
2023-01-17T01:28:09.943Z,37.80
2023-01-17T01:33:22.286Z,31.85
2023-01-17T01:35:54.332Z,26.58
2023-01-17T01:38:23.835Z,21.55
2023-01-17T01:40:53.416Z,21.27
2023-01-17T01:43:41.520Z,24.00
2023-01-17T01:46:11.750Z,21.95
2023-01-17T01:48:53.823Z,19.23
2023-01-17T01:51:28.028Z,12.90
2023-01-17T01:54:02.889Z,15.63
2023-01-17T01:56:31.378Z,12.52
2023-01-17T01:59:01.407Z,14.80
2023-01-17T02:01:29.892Z,12.75
2023-01-17T02:03:57.248Z,13.77
2023-01-17T02:06:32.544Z,11.05
2023-01-17T02:11:29.259Z,13.70
2023-01-17T02:13:56.137Z,17.05
2023-01-17T02:16:44.541Z,12.80
2023-01-17T02:19:49.759Z,16.00
2023-01-17T02:22:31.710Z,16.90
2023-01-17T02:25:04.542Z,15.13
2023-01-17T02:28:17.791Z,20.90
2023-01-17T02:30:50.651Z,17.88
2023-01-17T02:33:25.614Z,25.70
2023-01-17T02:36:33.303Z,20.27
2023-01-17T02:39:12.200Z,19.60
2023-01-17T02:41:47.238Z,18.70
2023-01-17T02:44:18.591Z,22.17
2023-01-17T02:46:50.573Z,23.13
2023-01-17T02:49:21.567Z,23.27
2023-01-17T02:52:26.776Z,21.27
2023-01-17T02:55:11.595Z,21.80
2023-01-17T02:57:53.577Z,21.07
2023-01-17T03:00:32.963Z,25.13
2023-01-17T03:03:10.436Z,21.98
2023-01-17T03:05:49.521Z,21.25
2023-01-17T03:08:17.403Z,18.95
2023-01-17T03:10:45.367Z,19.67
2023-01-17T03:13:12.332Z,15.15
2023-01-17T03:15:40.176Z,17.98
2023-01-17T03:18:13.017Z,20.50
2023-01-17T03:20:39.978Z,15.48
2023-01-17T03:23:06.991Z,16.30
2023-01-17T03:25:34.143Z,17.80
2023-01-17T03:28:00.986Z,17.27
2023-01-17T03:30:28.026Z,17.33
2023-01-17T03:32:54.870Z,19.17
2023-01-17T03:35:21.760Z,15.82
2023-01-17T03:37:48.725Z,16.85
2023-01-17T03:40:15.591Z,18.20
2023-01-17T03:42:42.899Z,14.90
2023-01-17T03:45:10.261Z,16.23
2023-01-17T03:47:37.174Z,15.55
2023-01-17T03:50:04.743Z,19.25
2023-01-17T03:52:32.553Z,14.23
2023-01-17T03:54:59.766Z,15.95
2023-01-17T03:57:26.672Z,13.48
2023-01-17T03:59:53.492Z,17.05
2023-01-17T04:02:20.568Z,14.70
2023-01-17T04:04:47.493Z,17.55
2023-01-17T04:07:14.360Z,18.63
2023-01-17T04:09:41.248Z,16.98
2023-01-17T04:12:09.547Z,12.60
2023-01-17T04:14:36.452Z,15.65
2023-01-17T04:17:04.237Z,15.07
2023-01-17T04:19:34.170Z,16.35
2023-01-17T04:22:01.068Z,15.63
2023-01-17T04:24:28.036Z,20.80
2023-01-17T04:26:54.940Z,20.73
2023-01-17T04:29:21.822Z,14.70
2023-01-17T04:31:48.899Z,14.63
2023-01-17T04:34:15.837Z,17.42
2023-01-17T04:36:42.688Z,11.77
2023-01-17T04:39:09.531Z,16.48
2023-01-17T04:41:36.420Z,12.65
2023-01-17T04:44:04.092Z,14.75
2023-01-17T04:46:31.268Z,14.32
2023-01-17T04:48:59.127Z,12.60
2023-01-17T04:51:26.173Z,15.00
2023-01-17T04:53:53.016Z,14.40
2023-01-17T04:56:19.909Z,13.20
2023-01-17T04:58:46.851Z,30.60
2023-01-17T05:01:13.942Z,15.02
2023-01-17T05:03:40.876Z,14.50
2023-01-17T05:06:07.833Z,14.52
2023-01-17T05:08:34.748Z,16.80
2023-01-17T05:11:01.751Z,15.25
2023-01-17T05:13:28.703Z,12.88
2023-01-17T05:15:57.860Z,15.35
2023-01-17T05:18:25.178Z,10.15
2023-01-17T05:20:52.261Z,15.02
2023-01-17T05:23:19.089Z,15.98
2023-01-17T05:25:45.986Z,18.25
2023-01-17T05:28:14.006Z,16.33
2023-01-17T05:30:41.440Z,16.98
2023-01-17T05:33:10.351Z,14.50
2023-01-17T05:35:37.754Z,16.35
2023-01-17T05:38:05.061Z,15.55
2023-01-17T05:40:33.283Z,12.70
2023-01-17T05:43:01.420Z,14.52
2023-01-17T05:45:29.907Z,16.08
2023-01-17T05:47:58.458Z,21.95
2023-01-17T05:50:31.083Z,11.55
2023-01-17T05:53:03.780Z,14.70
2023-01-17T05:55:31.998Z,15.73
2023-01-17T05:57:59.731Z,16.10
2023-01-17T06:00:27.484Z,18.05
2023-01-17T06:02:55.888Z,13.85
2023-01-17T06:05:23.447Z,18.08
2023-01-17T06:07:50.373Z,21.08
2023-01-17T06:10:19.241Z,17.10
2023-01-17T06:12:46.858Z,14.38
2023-01-17T06:15:15.495Z,11.27
2023-01-17T06:17:42.506Z,14.75
2023-01-17T06:20:11.544Z,13.93
2023-01-17T06:22:38.416Z,14.48
2023-01-17T06:25:05.700Z,17.52
2023-01-17T06:27:32.606Z,11.88
2023-01-17T06:29:59.455Z,14.15
2023-01-17T06:32:26.276Z,10.70
2023-01-17T06:34:53.409Z,13.35
2023-01-17T06:37:20.260Z,13.10
2023-01-17T06:39:47.180Z,12.68
2023-01-17T06:42:14.058Z,14.07
2023-01-17T06:44:41.061Z,14.55
2023-01-17T06:47:07.924Z,9.90
2023-01-17T06:49:34.774Z,17.33
2023-01-17T06:52:01.643Z,15.45
2023-01-17T06:54:28.534Z,15.32
2023-01-17T06:56:55.461Z,12.98
2023-01-17T06:59:22.422Z,16.88
2023-01-17T07:01:49.305Z,13.52
2023-01-17T07:04:16.261Z,14.10
2023-01-17T07:06:43.128Z,20.20
2023-01-17T07:09:10.081Z,19.40
2023-01-17T07:11:36.973Z,19.10
2023-01-17T07:14:03.840Z,12.93
2023-01-17T07:16:30.801Z,12.40
2023-01-17T07:18:58.197Z,12.55
2023-01-17T07:21:25.164Z,11.70
2023-01-17T07:23:52.091Z,14.98
2023-01-17T07:26:19.082Z,14.70
2023-01-17T07:28:46.001Z,9.43
2023-01-17T07:34:29.242Z,8.13
2023-01-17T07:36:56.906Z,13.70
2023-01-17T07:39:23.883Z,13.82
2023-01-17T07:41:50.728Z,19.17
2023-01-17T07:44:19.625Z,15.40
2023-01-17T07:46:46.774Z,14.57
2023-01-17T07:49:14.713Z,16.73
2023-01-17T07:51:41.597Z,16.75
2023-01-17T07:54:08.565Z,13.68
2023-01-17T07:56:35.520Z,18.00
2023-01-17T07:59:02.427Z,13.15
2023-01-17T08:01:29.494Z,11.60
2023-01-17T08:03:56.520Z,15.60
2023-01-17T08:06:25.698Z,18.75
2023-01-17T08:08:56.542Z,13.13
2023-01-17T08:11:23.591Z,11.65
2023-01-17T08:17:11.579Z,13.77
2023-01-17T08:19:38.547Z,9.68
2023-01-17T08:22:05.404Z,20.40
2023-01-17T08:24:32.307Z,27.27
2023-01-17T08:26:59.231Z,23.60
2023-01-17T08:29:26.273Z,38.35
2023-01-17T08:31:54.180Z,33.10
2023-01-17T08:34:21.174Z,29.35
2023-01-17T08:36:48.066Z,26.40
2023-01-17T08:39:15.046Z,28.17
2023-01-17T08:41:41.951Z,21.05
2023-01-17T08:44:08.853Z,19.80
2023-01-17T08:46:38.352Z,23.02
2023-01-17T08:49:08.260Z,23.15
2023-01-17T08:51:36.580Z,22.90
2023-01-17T08:54:03.564Z,25.58
2023-01-17T08:56:30.563Z,24.90
2023-01-17T08:58:57.424Z,18.00
2023-01-17T09:01:24.410Z,11.90
2023-01-17T09:03:52.046Z,14.20
2023-01-17T09:06:18.991Z,21.38
2023-01-17T09:08:47.117Z,16.33
2023-01-17T09:11:18.043Z,15.15
2023-01-17T09:13:45.065Z,14.18
2023-01-17T09:16:12.239Z,15.45
2023-01-17T09:18:39.347Z,24.27
2023-01-17T09:21:25.970Z,14.85
2023-01-17T09:23:53.727Z,10.30
2023-01-17T09:26:22.180Z,9.38
2023-01-17T09:28:49.546Z,12.35
2023-01-17T09:31:17.745Z,10.18
2023-01-17T09:33:44.839Z,7.22
2023-01-17T09:36:12.187Z,11.32
2023-01-17T09:38:40.407Z,9.43
2023-01-17T09:41:31.378Z,10.45
2023-01-17T09:44:32.162Z,10.70
2023-01-17T09:47:11.505Z,9.25
2023-01-17T09:49:44.461Z,8.35
2023-01-17T09:52:23.392Z,17.45
2023-01-17T09:54:51.709Z,17.33
2023-01-17T09:57:41.845Z,15.43
2023-01-17T10:00:13.009Z,12.32
2023-01-17T10:03:01.646Z,12.63
2023-01-17T10:05:43.488Z,11.63
2023-01-17T10:08:29.843Z,9.32
2023-01-17T10:11:33.543Z,11.02
2023-01-17T10:14:18.860Z,10.20
2023-01-17T10:19:23.085Z,7.70
2023-01-17T10:22:15.414Z,9.38
2023-01-17T10:25:04.161Z,9.35
2023-01-17T10:27:35.104Z,8.43
2023-01-17T10:30:05.168Z,10.60
2023-01-17T10:32:34.780Z,9.77
2023-01-17T10:35:17.478Z,9.65
2023-01-17T10:37:45.604Z,11.13
2023-01-17T10:40:18.140Z,10.80
2023-01-17T10:42:53.847Z,12.45
2023-01-17T10:45:28.604Z,13.45
2023-01-17T10:48:29.909Z,7.43
2023-01-17T10:51:12.538Z,11.65
2023-01-17T10:53:59.034Z,8.95
2023-01-17T10:56:30.225Z,8.88
2023-01-17T10:59:12.208Z,9.23
2023-01-17T11:01:39.514Z,8.07
2023-01-17T11:04:22.835Z,10.73
2023-01-17T11:07:13.318Z,8.93
2023-01-17T11:09:42.881Z,11.13
2023-01-17T11:12:39.788Z,15.48
2023-01-17T11:15:09.401Z,12.65
2023-01-17T11:17:48.986Z,12.88
2023-01-17T11:20:26.352Z,7.97
2023-01-17T11:23:08.282Z,10.05
2023-01-17T11:25:35.456Z,8.35
2023-01-17T11:28:18.103Z,12.25
2023-01-17T11:30:57.153Z,8.13
2023-01-17T11:33:53.988Z,9.73
2023-01-17T11:36:22.322Z,11.18
2023-01-17T11:39:18.135Z,14.23
2023-01-17T11:41:47.862Z,7.90
2023-01-17T11:44:34.197Z,7.63
2023-01-17T11:47:11.224Z,14.07
2023-01-17T11:49:42.987Z,14.27
2023-01-17T11:52:33.071Z,10.25
2023-01-17T11:55:00.388Z,12.38
2023-01-17T11:57:31.638Z,11.50
2023-01-17T12:00:19.514Z,10.05
2023-01-17T12:03:15.329Z,14.75
2023-01-17T12:08:42.919Z,8.23
2023-01-17T12:11:14.457Z,10.05
2023-01-17T12:14:02.269Z,10.68
2023-01-17T12:16:47.949Z,13.20
2023-01-17T12:19:33.103Z,8.85
2023-01-17T12:24:51.403Z,13.45
2023-01-17T12:27:41.962Z,4.97
2023-01-17T12:30:24.577Z,10.35
2023-01-17T12:33:21.641Z,11.38
2023-01-17T12:36:02.175Z,7.72
2023-01-17T12:38:35.990Z,9.95
2023-01-17T12:41:06.517Z,5.88
2023-01-17T12:43:43.258Z,11.07
2023-01-17T12:46:21.090Z,10.75
2023-01-17T12:48:52.325Z,10.90
2023-01-17T12:51:27.877Z,13.40
2023-01-17T12:54:16.203Z,9.15
2023-01-17T12:56:50.784Z,11.60
2023-01-17T12:59:38.172Z,5.85
2023-01-17T13:02:33.695Z,9.30
2023-01-17T13:05:11.831Z,8.35
2023-01-17T13:07:54.019Z,8.82
2023-01-17T13:10:31.891Z,14.40
2023-01-17T13:13:34.630Z,9.23
2023-01-17T13:16:43.387Z,7.90
2023-01-17T13:19:29.052Z,8.43
2023-01-17T13:21:57.545Z,13.00
2023-01-17T13:24:48.395Z,11.18
2023-01-17T13:27:44.535Z,10.68
2023-01-17T13:30:35.717Z,14.13
2023-01-17T13:33:10.298Z,10.48
2023-01-17T13:36:15.793Z,7.40
2023-01-17T13:38:57.653Z,10.68
2023-01-17T13:41:50.779Z,10.77
2023-01-17T13:44:24.998Z,11.48
2023-01-17T13:47:02.179Z,13.25
2023-01-17T13:49:31.922Z,10.10
2023-01-17T13:52:23.169Z,12.57
2023-01-17T13:54:57.274Z,9.63
2023-01-17T13:57:29.748Z,13.20
2023-01-17T13:59:59.230Z,13.38
2023-01-17T14:02:32.046Z,11.98
2023-01-17T14:05:21.493Z,11.60
2023-01-17T14:07:58.408Z,11.65
2023-01-17T14:10:34.633Z,7.75
2023-01-17T14:13:02.391Z,10.63
2023-01-17T14:15:33.788Z,13.48
2023-01-17T14:18:05.117Z,10.75
2023-01-17T14:20:44.254Z,9.25
2023-01-17T14:23:25.446Z,11.95
2023-01-17T14:25:53.475Z,8.30
2023-01-17T14:28:23.952Z,11.15
2023-01-17T14:30:56.106Z,13.93
2023-01-17T14:33:30.353Z,13.95
2023-01-17T14:36:14.415Z,17.10
2023-01-17T14:38:44.623Z,10.13
2023-01-17T14:41:19.125Z,9.95
2023-01-17T14:43:48.423Z,13.23
2023-01-17T14:46:28.599Z,11.18
2023-01-17T14:49:02.447Z,12.18
2023-01-17T14:51:29.916Z,12.75
2023-01-17T14:54:02.506Z,8.10
2023-01-17T14:56:31.446Z,15.98
2023-01-17T14:59:17.589Z,7.50
2023-01-17T15:02:06.164Z,12.70
2023-01-17T15:04:39.359Z,7.70
2023-01-17T15:07:07.784Z,14.75
2023-01-17T15:09:38.618Z,13.13
2023-01-17T15:12:10.509Z,10.20
2023-01-17T15:14:41.789Z,12.15
2023-01-17T15:17:20.494Z,8.05
2023-01-17T15:19:52.990Z,11.77
2023-01-17T15:22:20.559Z,21.73
2023-01-17T15:24:49.301Z,21.02
2023-01-17T15:27:17.086Z,11.85
2023-01-17T15:29:46.061Z,9.73
2023-01-17T15:32:20.391Z,8.18
2023-01-17T15:34:49.703Z,14.77
2023-01-17T15:37:32.826Z,8.05
2023-01-17T15:40:17.056Z,13.30
2023-01-17T15:42:46.937Z,16.83
2023-01-17T15:45:19.933Z,12.55
2023-01-17T15:47:47.044Z,17.85
2023-01-17T15:50:20.069Z,20.30
2023-01-17T15:53:02.681Z,10.25
2023-01-17T15:55:40.439Z,13.45
2023-01-17T15:58:28.575Z,19.38
2023-01-17T16:00:55.978Z,15.68
2023-01-17T16:03:24.309Z,13.43
2023-01-17T16:05:53.358Z,13.32
2023-01-17T16:08:32.115Z,16.90
2023-01-17T16:11:02.475Z,11.02
2023-01-17T16:13:31.766Z,12.80
2023-01-17T16:16:13.571Z,17.75
2023-01-17T16:18:40.899Z,17.75
2023-01-17T16:21:29.273Z,12.88
2023-01-17T16:23:56.880Z,18.50
2023-01-17T16:26:24.305Z,13.30
2023-01-17T16:28:51.891Z,23.77
2023-01-17T16:31:19.072Z,15.00
2023-01-17T16:33:49.485Z,16.13
2023-01-17T16:36:16.930Z,13.60
2023-01-17T16:38:45.413Z,18.38
2023-01-17T16:41:12.501Z,32.40
2023-01-17T16:43:39.620Z,17.15
2023-01-17T16:46:07.227Z,33.53
2023-01-17T16:48:34.184Z,26.95
2023-01-17T16:51:06.806Z,23.00
2023-01-17T16:53:35.115Z,24.90
2023-01-17T16:56:12.118Z,24.10
2023-01-17T16:58:39.812Z,22.02
2023-01-17T17:01:25.567Z,21.10
2023-01-17T17:03:52.647Z,19.38
2023-01-17T17:06:19.922Z,22.35
2023-01-17T17:08:47.774Z,18.05
2023-01-17T17:11:23.284Z,27.42
2023-01-17T17:13:51.354Z,27.38
2023-01-17T17:16:33.011Z,28.20
2023-01-17T17:19:03.568Z,17.33
2023-01-17T17:21:32.173Z,20.40
2023-01-17T17:24:00.954Z,21.30
2023-01-17T17:26:32.045Z,31.58
2023-01-17T17:28:59.149Z,19.08
2023-01-17T17:31:26.900Z,26.55
2023-01-17T17:33:58.767Z,26.63
2023-01-17T17:36:25.723Z,25.33
2023-01-17T17:38:55.494Z,24.30
2023-01-17T17:41:24.901Z,26.40
2023-01-17T17:43:52.444Z,29.25
2023-01-17T17:46:21.376Z,33.08
2023-01-17T17:48:49.599Z,19.67
2023-01-17T17:51:27.837Z,27.00
2023-01-17T17:53:57.996Z,31.00
2023-01-17T17:56:25.162Z,36.45
2023-01-17T17:58:52.341Z,28.83
2023-01-17T18:01:20.120Z,21.90
2023-01-17T18:03:47.401Z,21.55
2023-01-17T18:06:16.179Z,19.58
2023-01-17T18:08:43.783Z,26.30
2023-01-17T18:11:19.792Z,27.63
2023-01-17T18:13:47.923Z,30.90
2023-01-17T18:16:16.364Z,25.40
2023-01-17T18:18:48.988Z,23.95
2023-01-17T18:21:23.745Z,19.85
2023-01-17T18:23:59.997Z,24.63
2023-01-17T18:26:35.422Z,27.63
2023-01-17T18:29:03.506Z,29.52
2023-01-17T18:31:31.374Z,32.13
2023-01-17T18:34:05.972Z,25.88
2023-01-17T18:36:35.045Z,34.50
2023-01-17T18:39:03.921Z,20.80
2023-01-17T18:41:31.429Z,31.15
2023-01-17T18:43:58.413Z,23.08
2023-01-17T18:46:26.786Z,28.98
2023-01-17T18:48:57.170Z,20.38
2023-01-17T18:51:24.954Z,26.65
2023-01-17T18:53:53.086Z,39.42
2023-01-17T18:56:21.903Z,27.40
2023-01-17T18:58:50.411Z,30.05
2023-01-17T19:01:25.197Z,22.58
2023-01-17T19:03:54.323Z,21.38
2023-01-17T19:06:33.218Z,24.42
2023-01-17T19:09:00.845Z,26.05
2023-01-17T19:11:28.710Z,34.35
2023-01-17T19:13:56.298Z,26.42
2023-01-17T19:16:29.508Z,27.50
2023-01-17T19:18:58.520Z,36.15
2023-01-17T19:21:27.646Z,18.20
2023-01-17T19:23:56.078Z,27.10
2023-01-17T19:26:25.168Z,21.98
2023-01-17T19:28:52.982Z,14.45
2023-01-17T19:31:31.484Z,29.25
2023-01-17T19:33:59.864Z,22.98
2023-01-17T19:36:34.530Z,19.83
2023-01-17T19:39:05.900Z,24.27
2023-01-17T19:41:36.072Z,21.40
2023-01-17T19:44:06.051Z,27.00
2023-01-17T19:46:34.216Z,28.45
2023-01-17T19:49:01.900Z,24.65
2023-01-17T19:51:29.060Z,23.83
2023-01-17T19:53:59.195Z,29.38
2023-01-17T19:56:27.093Z,25.20
2023-01-17T19:58:54.709Z,32.47
2023-01-17T20:01:25.356Z,24.83
2023-01-17T20:03:53.013Z,30.42
2023-01-17T20:06:22.141Z,23.00
2023-01-17T20:08:49.112Z,27.52
2023-01-17T20:11:19.786Z,23.38
2023-01-17T20:13:47.760Z,23.45
2023-01-17T20:16:16.761Z,26.17
2023-01-17T20:18:44.611Z,30.23
2023-01-17T20:21:12.437Z,24.88
2023-01-17T20:23:43.137Z,25.48
2023-01-17T20:26:18.737Z,22.08
2023-01-17T20:28:47.650Z,23.38
2023-01-17T20:31:17.736Z,17.17
2023-01-17T20:33:47.049Z,19.45
2023-01-17T20:36:15.606Z,20.92
2023-01-17T20:38:46.574Z,17.15
2023-01-17T20:41:19.141Z,20.10
2023-01-17T20:43:48.460Z,31.52
2023-01-17T20:46:16.371Z,26.50
2023-01-17T20:48:48.204Z,19.70
2023-01-17T20:51:15.795Z,18.45
2023-01-17T20:53:44.744Z,23.58
2023-01-17T20:56:14.663Z,23.63
2023-01-17T20:58:42.676Z,18.63
2023-01-17T21:01:11.923Z,34.88
2023-01-17T21:03:40.082Z,24.40
2023-01-17T21:06:10.032Z,23.85
2023-01-17T21:08:39.458Z,20.58
2023-01-17T21:11:08.735Z,26.73
2023-01-17T21:13:35.659Z,27.75
2023-01-17T21:16:03.471Z,22.67
2023-01-17T21:18:33.951Z,25.20
2023-01-17T21:21:08.367Z,31.98
2023-01-17T21:23:36.517Z,14.07
2023-01-17T21:26:04.612Z,17.85
2023-01-17T21:28:36.784Z,26.60
2023-01-17T21:31:25.175Z,17.92
2023-01-17T21:34:04.514Z,23.70
2023-01-17T21:36:37.391Z,22.63
2023-01-17T21:39:07.631Z,20.20
2023-01-17T21:41:39.736Z,36.72
2023-01-17T21:44:20.745Z,21.63
2023-01-17T21:46:48.276Z,25.45
2023-01-17T21:49:15.568Z,33.85
2023-01-17T21:51:55.436Z,39.95
2023-01-17T21:55:07.192Z,22.90
2023-01-17T21:57:52.364Z,27.35
2023-01-17T22:00:19.554Z,23.95
2023-01-17T22:02:47.749Z,27.52
2023-01-17T22:05:16.942Z,26.40
2023-01-17T22:08:04.669Z,23.58
2023-01-17T22:10:31.782Z,19.58
2023-01-17T22:12:58.788Z,22.60
2023-01-17T22:15:25.783Z,19.48
2023-01-17T22:17:52.803Z,21.48
2023-01-17T22:20:21.115Z,20.23
2023-01-17T22:22:48.405Z,21.60
2023-01-17T22:25:15.503Z,28.30
2023-01-17T22:27:42.359Z,18.45
2023-01-17T22:30:13.078Z,18.42
2023-01-17T22:32:40.400Z,26.73
2023-01-17T22:35:08.224Z,20.30
2023-01-17T22:37:35.419Z,14.20
2023-01-17T22:40:04.991Z,18.40
2023-01-17T22:42:34.998Z,27.77
2023-01-17T22:45:02.224Z,21.02
2023-01-17T22:47:29.373Z,25.33
2023-01-17T22:49:56.315Z,26.00
2023-01-17T22:52:23.172Z,25.42
2023-01-17T22:54:50.732Z,28.02
2023-01-17T22:57:18.339Z,16.92
2023-01-17T22:59:45.172Z,20.52
2023-01-17T23:02:12.187Z,18.88
2023-01-17T23:04:39.059Z,26.33
2023-01-17T23:07:05.901Z,24.15
2023-01-17T23:09:33.184Z,25.48
2023-01-17T23:12:00.397Z,20.35
2023-01-17T23:14:52.560Z,27.27
2023-01-17T23:17:43.105Z,19.38
2023-01-17T23:20:11.547Z,20.40
2023-01-17T23:22:38.755Z,21.38
2023-01-17T23:25:09.403Z,22.92
2023-01-17T23:28:03.513Z,23.83
2023-01-17T23:30:40.966Z,28.25
2023-01-17T23:33:10.337Z,28.23
2023-01-17T23:35:42.560Z,27.77
2023-01-17T23:38:37.626Z,22.48
2023-01-17T23:41:24.435Z,33.97
2023-01-17T23:43:52.823Z,30.38
2023-01-17T23:46:20.027Z,17.90
2023-01-17T23:48:47.225Z,23.67
2023-01-17T23:51:14.350Z,27.35
2023-01-17T23:53:41.588Z,21.70
2023-01-17T23:56:20.850Z,22.23
2023-01-17T23:58:48.287Z,25.75
